sensor_id;sensor_type;location;lat;lon;timestamp;temperature;humidity
19168;DHT22;9716;53.114;18.040;2022-10-16T00:01:29;13.80;99.90
19168;DHT22;9716;53.114;18.040;2022-10-16T00:03:58;13.70;99.90
19168;DHT22;9716;53.114;18.040;2022-10-16T00:06:29;13.70;99.90
19168;DHT22;9716;53.114;18.040;2022-10-16T00:09:00;13.60;99.90
19168;DHT22;9716;53.114;18.040;2022-10-16T00:11:32;13.50;99.90
19168;DHT22;9716;53.114;18.040;2022-10-16T00:14:05;13.40;99.90
19168;DHT22;9716;53.114;18.040;2022-10-16T00:16:34;13.30;99.90
19168;DHT22;9716;53.114;18.040;2022-10-16T00:19:03;13.20;99.90
19168;DHT22;9716;53.114;18.040;2022-10-16T00:21:32;13.10;99.90
19168;DHT22;9716;53.114;18.040;2022-10-16T00:24:03;13.00;99.90
19168;DHT22;9716;53.114;18.040;2022-10-16T00:26:35;12.90;99.90
19168;DHT22;9716;53.114;18.040;2022-10-16T00:29:04;12.90;99.90
19168;DHT22;9716;53.114;18.040;2022-10-16T00:31:33;12.80;99.90
19168;DHT22;9716;53.114;18.040;2022-10-16T00:34:01;12.80;99.90
19168;DHT22;9716;53.114;18.040;2022-10-16T00:36:29;12.80;99.90
19168;DHT22;9716;53.114;18.040;2022-10-16T00:38:59;12.80;99.90
19168;DHT22;9716;53.114;18.040;2022-10-16T00:41:29;12.80;99.90
19168;DHT22;9716;53.114;18.040;2022-10-16T00:44:00;12.80;99.90
19168;DHT22;9716;53.114;18.040;2022-10-16T00:46:34;12.90;99.90
19168;DHT22;9716;53.114;18.040;2022-10-16T00:49:05;12.90;99.90
19168;DHT22;9716;53.114;18.040;2022-10-16T00:51:36;13.00;99.90
19168;DHT22;9716;53.114;18.040;2022-10-16T00:54:08;13.10;99.90
19168;DHT22;9716;53.114;18.040;2022-10-16T00:56:37;13.10;99.90
19168;DHT22;9716;53.114;18.040;2022-10-16T00:59:11;13.20;99.90
19168;DHT22;9716;53.114;18.040;2022-10-16T01:01:43;13.20;99.90
19168;DHT22;9716;53.114;18.040;2022-10-16T01:04:11;13.30;99.90
19168;DHT22;9716;53.114;18.040;2022-10-16T01:06:55;13.30;99.90
19168;DHT22;9716;53.114;18.040;2022-10-16T01:09:34;13.40;99.90
19168;DHT22;9716;53.114;18.040;2022-10-16T01:12:10;13.40;99.90
19168;DHT22;9716;53.114;18.040;2022-10-16T01:14:47;13.50;99.90
19168;DHT22;9716;53.114;18.040;2022-10-16T01:17:20;13.50;99.90
19168;DHT22;9716;53.114;18.040;2022-10-16T01:20:05;13.50;99.90
19168;DHT22;9716;53.114;18.040;2022-10-16T01:22:42;13.60;99.90
19168;DHT22;9716;53.114;18.040;2022-10-16T01:25:19;13.60;99.90
19168;DHT22;9716;53.114;18.040;2022-10-16T01:27:50;13.60;99.90
19168;DHT22;9716;53.114;18.040;2022-10-16T01:30:23;13.70;99.90
19168;DHT22;9716;53.114;18.040;2022-10-16T01:32:56;13.70;99.90
19168;DHT22;9716;53.114;18.040;2022-10-16T01:35:29;13.70;99.90
19168;DHT22;9716;53.114;18.040;2022-10-16T01:38:01;13.70;99.90
19168;DHT22;9716;53.114;18.040;2022-10-16T01:40:33;13.70;99.90
19168;DHT22;9716;53.114;18.040;2022-10-16T01:43:06;13.70;99.90
19168;DHT22;9716;53.114;18.040;2022-10-16T01:45:37;13.70;99.90
19168;DHT22;9716;53.114;18.040;2022-10-16T01:48:06;13.70;99.90
19168;DHT22;9716;53.114;18.040;2022-10-16T01:50:38;13.70;99.90
19168;DHT22;9716;53.114;18.040;2022-10-16T01:53:11;13.80;99.90
19168;DHT22;9716;53.114;18.040;2022-10-16T01:55:43;13.80;99.90
19168;DHT22;9716;53.114;18.040;2022-10-16T01:58:14;13.80;99.90
19168;DHT22;9716;53.114;18.040;2022-10-16T02:00:44;13.80;99.90
19168;DHT22;9716;53.114;18.040;2022-10-16T02:03:16;13.80;99.90
19168;DHT22;9716;53.114;18.040;2022-10-16T02:05:48;13.80;99.90
19168;DHT22;9716;53.114;18.040;2022-10-16T02:08:19;13.80;99.90
19168;DHT22;9716;53.114;18.040;2022-10-16T02:10:47;13.70;99.90
19168;DHT22;9716;53.114;18.040;2022-10-16T02:13:21;13.70;99.90
19168;DHT22;9716;53.114;18.040;2022-10-16T02:15:50;13.70;99.90
19168;DHT22;9716;53.114;18.040;2022-10-16T02:18:18;13.60;99.90
19168;DHT22;9716;53.114;18.040;2022-10-16T02:20:52;13.60;99.90
19168;DHT22;9716;53.114;18.040;2022-10-16T02:23:30;13.50;99.90
19168;DHT22;9716;53.114;18.040;2022-10-16T02:26:03;13.50;99.90
19168;DHT22;9716;53.114;18.040;2022-10-16T02:28:38;13.50;99.90
19168;DHT22;9716;53.114;18.040;2022-10-16T02:31:11;13.40;99.90
19168;DHT22;9716;53.114;18.040;2022-10-16T02:33:42;13.40;99.90
19168;DHT22;9716;53.114;18.040;2022-10-16T02:36:12;13.40;99.90
19168;DHT22;9716;53.114;18.040;2022-10-16T02:38:41;13.40;99.90
19168;DHT22;9716;53.114;18.040;2022-10-16T02:41:09;13.40;99.90
19168;DHT22;9716;53.114;18.040;2022-10-16T02:43:39;13.40;99.90
19168;DHT22;9716;53.114;18.040;2022-10-16T02:46:08;13.40;99.90
19168;DHT22;9716;53.114;18.040;2022-10-16T02:48:36;13.40;99.90
19168;DHT22;9716;53.114;18.040;2022-10-16T02:51:06;13.40;99.90
19168;DHT22;9716;53.114;18.040;2022-10-16T02:53:34;13.40;99.90
19168;DHT22;9716;53.114;18.040;2022-10-16T02:56:03;13.50;99.90
19168;DHT22;9716;53.114;18.040;2022-10-16T02:58:31;13.50;99.90
19168;DHT22;9716;53.114;18.040;2022-10-16T03:01:01;13.50;99.90
19168;DHT22;9716;53.114;18.040;2022-10-16T03:03:30;13.60;99.90
19168;DHT22;9716;53.114;18.040;2022-10-16T03:05:58;13.60;99.90
19168;DHT22;9716;53.114;18.040;2022-10-16T03:08:26;13.60;99.90
19168;DHT22;9716;53.114;18.040;2022-10-16T03:10:55;13.70;99.90
19168;DHT22;9716;53.114;18.040;2022-10-16T03:13:23;13.70;99.90
19168;DHT22;9716;53.114;18.040;2022-10-16T03:15:51;13.70;99.90
19168;DHT22;9716;53.114;18.040;2022-10-16T03:18:21;13.70;99.90
19168;DHT22;9716;53.114;18.040;2022-10-16T03:20:50;13.80;99.90
19168;DHT22;9716;53.114;18.040;2022-10-16T03:23:18;13.80;99.90
19168;DHT22;9716;53.114;18.040;2022-10-16T03:25:47;13.80;99.90
19168;DHT22;9716;53.114;18.040;2022-10-16T03:28:15;13.90;99.90
19168;DHT22;9716;53.114;18.040;2022-10-16T03:30:44;13.80;99.90
19168;DHT22;9716;53.114;18.040;2022-10-16T03:33:12;13.90;99.90
19168;DHT22;9716;53.114;18.040;2022-10-16T03:35:42;13.90;99.90
19168;DHT22;9716;53.114;18.040;2022-10-16T03:38:10;13.90;99.90
19168;DHT22;9716;53.114;18.040;2022-10-16T03:40:38;14.00;99.90
19168;DHT22;9716;53.114;18.040;2022-10-16T03:43:07;14.00;99.90
19168;DHT22;9716;53.114;18.040;2022-10-16T03:45:35;14.00;99.90
19168;DHT22;9716;53.114;18.040;2022-10-16T03:48:04;14.00;99.90
19168;DHT22;9716;53.114;18.040;2022-10-16T03:50:32;14.00;99.90
19168;DHT22;9716;53.114;18.040;2022-10-16T03:53:03;14.00;99.90
19168;DHT22;9716;53.114;18.040;2022-10-16T03:55:31;14.10;99.90
19168;DHT22;9716;53.114;18.040;2022-10-16T03:58:00;14.10;99.90
19168;DHT22;9716;53.114;18.040;2022-10-16T04:00:28;14.00;99.90
19168;DHT22;9716;53.114;18.040;2022-10-16T04:02:56;14.00;99.90
19168;DHT22;9716;53.114;18.040;2022-10-16T04:05:25;14.10;99.90
19168;DHT22;9716;53.114;18.040;2022-10-16T04:07:54;14.00;99.90
19168;DHT22;9716;53.114;18.040;2022-10-16T04:10:23;14.00;99.90
19168;DHT22;9716;53.114;18.040;2022-10-16T04:12:52;14.00;99.90
19168;DHT22;9716;53.114;18.040;2022-10-16T04:15:21;14.10;99.90
19168;DHT22;9716;53.114;18.040;2022-10-16T04:17:51;14.10;99.90
19168;DHT22;9716;53.114;18.040;2022-10-16T04:20:19;14.10;99.90
19168;DHT22;9716;53.114;18.040;2022-10-16T04:22:48;14.10;99.90
19168;DHT22;9716;53.114;18.040;2022-10-16T04:25:16;14.10;99.90
19168;DHT22;9716;53.114;18.040;2022-10-16T04:27:46;14.10;99.90
19168;DHT22;9716;53.114;18.040;2022-10-16T04:30:15;14.20;99.90
19168;DHT22;9716;53.114;18.040;2022-10-16T04:32:47;14.10;99.90
19168;DHT22;9716;53.114;18.040;2022-10-16T04:35:17;14.10;99.90
19168;DHT22;9716;53.114;18.040;2022-10-16T04:37:46;14.10;99.90
19168;DHT22;9716;53.114;18.040;2022-10-16T04:40:14;14.20;99.90
19168;DHT22;9716;53.114;18.040;2022-10-16T04:42:43;14.20;99.90
19168;DHT22;9716;53.114;18.040;2022-10-16T04:45:13;14.20;99.90
19168;DHT22;9716;53.114;18.040;2022-10-16T04:47:43;14.20;99.90
19168;DHT22;9716;53.114;18.040;2022-10-16T04:50:11;14.20;99.90
19168;DHT22;9716;53.114;18.040;2022-10-16T04:52:40;14.20;99.90
19168;DHT22;9716;53.114;18.040;2022-10-16T04:55:08;14.20;99.90
19168;DHT22;9716;53.114;18.040;2022-10-16T04:57:37;14.20;99.90
19168;DHT22;9716;53.114;18.040;2022-10-16T05:00:06;14.20;99.90
19168;DHT22;9716;53.114;18.040;2022-10-16T05:02:36;14.20;99.90
19168;DHT22;9716;53.114;18.040;2022-10-16T05:05:05;14.20;99.90
19168;DHT22;9716;53.114;18.040;2022-10-16T05:07:34;14.20;99.90
19168;DHT22;9716;53.114;18.040;2022-10-16T05:10:02;14.30;99.90
19168;DHT22;9716;53.114;18.040;2022-10-16T05:12:32;14.30;99.90
19168;DHT22;9716;53.114;18.040;2022-10-16T05:15:00;14.20;99.90
19168;DHT22;9716;53.114;18.040;2022-10-16T05:17:28;14.30;99.90
19168;DHT22;9716;53.114;18.040;2022-10-16T05:19:58;14.30;99.90
19168;DHT22;9716;53.114;18.040;2022-10-16T05:22:27;14.30;99.90
19168;DHT22;9716;53.114;18.040;2022-10-16T05:24:55;14.30;99.90
19168;DHT22;9716;53.114;18.040;2022-10-16T05:27:24;14.30;99.90
19168;DHT22;9716;53.114;18.040;2022-10-16T05:29:52;14.30;99.90
19168;DHT22;9716;53.114;18.040;2022-10-16T05:32:21;14.30;99.90
19168;DHT22;9716;53.114;18.040;2022-10-16T05:34:50;14.40;99.90
19168;DHT22;9716;53.114;18.040;2022-10-16T05:37:20;14.40;99.90
19168;DHT22;9716;53.114;18.040;2022-10-16T05:39:48;14.40;99.90
19168;DHT22;9716;53.114;18.040;2022-10-16T05:42:17;14.40;99.90
19168;DHT22;9716;53.114;18.040;2022-10-16T05:44:45;14.50;99.90
19168;DHT22;9716;53.114;18.040;2022-10-16T05:47:14;14.50;99.90
19168;DHT22;9716;53.114;18.040;2022-10-16T05:49:42;14.50;99.90
19168;DHT22;9716;53.114;18.040;2022-10-16T05:52:11;14.60;99.90
19168;DHT22;9716;53.114;18.040;2022-10-16T05:54:40;14.60;99.90
19168;DHT22;9716;53.114;18.040;2022-10-16T05:57:09;14.60;99.90
19168;DHT22;9716;53.114;18.040;2022-10-16T05:59:37;14.70;99.90
19168;DHT22;9716;53.114;18.040;2022-10-16T06:02:07;14.70;99.90
19168;DHT22;9716;53.114;18.040;2022-10-16T06:04:36;14.80;99.90
19168;DHT22;9716;53.114;18.040;2022-10-16T06:07:05;14.90;99.90
19168;DHT22;9716;53.114;18.040;2022-10-16T06:09:33;15.00;99.90
19168;DHT22;9716;53.114;18.040;2022-10-16T06:12:03;15.00;99.90
19168;DHT22;9716;53.114;18.040;2022-10-16T06:14:31;15.10;99.90
19168;DHT22;9716;53.114;18.040;2022-10-16T06:17:00;15.20;99.90
19168;DHT22;9716;53.114;18.040;2022-10-16T06:19:28;15.20;99.90
19168;DHT22;9716;53.114;18.040;2022-10-16T06:21:58;15.30;99.90
19168;DHT22;9716;53.114;18.040;2022-10-16T06:24:27;15.30;99.90
19168;DHT22;9716;53.114;18.040;2022-10-16T06:26:55;15.40;99.90
19168;DHT22;9716;53.114;18.040;2022-10-16T06:29:25;15.50;99.90
19168;DHT22;9716;53.114;18.040;2022-10-16T06:31:53;15.50;99.90
19168;DHT22;9716;53.114;18.040;2022-10-16T06:34:22;15.60;99.90
19168;DHT22;9716;53.114;18.040;2022-10-16T06:36:50;15.60;99.90
19168;DHT22;9716;53.114;18.040;2022-10-16T06:39:19;15.70;99.90
19168;DHT22;9716;53.114;18.040;2022-10-16T06:41:47;15.80;99.90
19168;DHT22;9716;53.114;18.040;2022-10-16T06:44:16;15.80;99.90
19168;DHT22;9716;53.114;18.040;2022-10-16T06:46:46;15.80;99.90
19168;DHT22;9716;53.114;18.040;2022-10-16T06:49:14;15.90;99.90
19168;DHT22;9716;53.114;18.040;2022-10-16T06:51:48;16.00;99.90
19168;DHT22;9716;53.114;18.040;2022-10-16T06:54:16;16.10;99.90
19168;DHT22;9716;53.114;18.040;2022-10-16T06:56:45;16.10;99.90
19168;DHT22;9716;53.114;18.040;2022-10-16T06:59:13;16.20;99.90
19168;DHT22;9716;53.114;18.040;2022-10-16T07:01:42;16.30;99.90
19168;DHT22;9716;53.114;18.040;2022-10-16T07:04:12;16.40;99.90
19168;DHT22;9716;53.114;18.040;2022-10-16T07:06:40;16.40;99.90
19168;DHT22;9716;53.114;18.040;2022-10-16T07:09:10;16.50;99.90
19168;DHT22;9716;53.114;18.040;2022-10-16T07:11:39;16.50;99.90
19168;DHT22;9716;53.114;18.040;2022-10-16T07:14:16;16.60;99.90
19168;DHT22;9716;53.114;18.040;2022-10-16T07:16:46;16.70;99.90
19168;DHT22;9716;53.114;18.040;2022-10-16T07:19:15;16.70;99.90
19168;DHT22;9716;53.114;18.040;2022-10-16T07:21:45;16.80;99.90
19168;DHT22;9716;53.114;18.040;2022-10-16T07:24:15;16.90;99.90
19168;DHT22;9716;53.114;18.040;2022-10-16T07:26:45;17.00;99.90
19168;DHT22;9716;53.114;18.040;2022-10-16T07:29:15;17.10;99.90
19168;DHT22;9716;53.114;18.040;2022-10-16T07:31:45;17.20;99.90
19168;DHT22;9716;53.114;18.040;2022-10-16T07:34:16;17.50;99.90
19168;DHT22;9716;53.114;18.040;2022-10-16T07:36:47;17.90;99.90
19168;DHT22;9716;53.114;18.040;2022-10-16T07:39:16;18.30;99.90
19168;DHT22;9716;53.114;18.040;2022-10-16T07:41:44;18.70;99.90
19168;DHT22;9716;53.114;18.040;2022-10-16T07:44:13;19.00;99.90
19168;DHT22;9716;53.114;18.040;2022-10-16T07:46:41;19.20;99.90
19168;DHT22;9716;53.114;18.040;2022-10-16T07:49:09;19.40;99.90
19168;DHT22;9716;53.114;18.040;2022-10-16T07:51:39;19.40;99.90
19168;DHT22;9716;53.114;18.040;2022-10-16T07:54:08;19.40;99.90
19168;DHT22;9716;53.114;18.040;2022-10-16T07:56:37;19.40;99.90
19168;DHT22;9716;53.114;18.040;2022-10-16T07:59:09;19.30;99.90
19168;DHT22;9716;53.114;18.040;2022-10-16T08:01:38;19.20;99.90
19168;DHT22;9716;53.114;18.040;2022-10-16T08:04:06;19.10;99.90
19168;DHT22;9716;53.114;18.040;2022-10-16T08:06:36;19.00;99.90
19168;DHT22;9716;53.114;18.040;2022-10-16T08:09:06;18.90;99.90
19168;DHT22;9716;53.114;18.040;2022-10-16T08:11:35;18.90;99.90
19168;DHT22;9716;53.114;18.040;2022-10-16T08:14:04;18.80;99.90
19168;DHT22;9716;53.114;18.040;2022-10-16T08:16:32;18.80;99.90
19168;DHT22;9716;53.114;18.040;2022-10-16T08:19:01;18.80;99.90
19168;DHT22;9716;53.114;18.040;2022-10-16T08:21:29;18.80;99.90
19168;DHT22;9716;53.114;18.040;2022-10-16T08:23:58;18.80;99.90
19168;DHT22;9716;53.114;18.040;2022-10-16T08:26:28;18.80;99.90
19168;DHT22;9716;53.114;18.040;2022-10-16T08:28:56;18.90;99.90
19168;DHT22;9716;53.114;18.040;2022-10-16T08:31:25;19.00;99.90
19168;DHT22;9716;53.114;18.040;2022-10-16T08:33:54;19.00;99.90
19168;DHT22;9716;53.114;18.040;2022-10-16T08:36:22;19.10;99.90
19168;DHT22;9716;53.114;18.040;2022-10-16T08:38:51;19.30;99.90
19168;DHT22;9716;53.114;18.040;2022-10-16T08:41:35;19.40;99.90
19168;DHT22;9716;53.114;18.040;2022-10-16T08:44:35;19.70;99.90
19168;DHT22;9716;53.114;18.040;2022-10-16T08:47:12;20.00;99.90
19168;DHT22;9716;53.114;18.040;2022-10-16T08:49:43;20.20;99.90
19168;DHT22;9716;53.114;18.040;2022-10-16T08:52:16;20.30;99.90
19168;DHT22;9716;53.114;18.040;2022-10-16T08:54:47;20.40;99.90
19168;DHT22;9716;53.114;18.040;2022-10-16T08:57:21;20.50;99.90
19168;DHT22;9716;53.114;18.040;2022-10-16T08:59:51;20.50;99.90
19168;DHT22;9716;53.114;18.040;2022-10-16T09:02:26;20.60;99.90
19168;DHT22;9716;53.114;18.040;2022-10-16T09:05:10;20.60;99.90
19168;DHT22;9716;53.114;18.040;2022-10-16T09:07:49;20.60;99.90
19168;DHT22;9716;53.114;18.040;2022-10-16T09:10:29;20.60;99.90
19168;DHT22;9716;53.114;18.040;2022-10-16T09:13:14;20.60;99.90
19168;DHT22;9716;53.114;18.040;2022-10-16T09:15:49;20.60;99.90
19168;DHT22;9716;53.114;18.040;2022-10-16T09:18:24;20.60;99.90
19168;DHT22;9716;53.114;18.040;2022-10-16T09:21:01;20.50;99.90
19168;DHT22;9716;53.114;18.040;2022-10-16T09:23:35;20.40;99.90
19168;DHT22;9716;53.114;18.040;2022-10-16T09:26:05;20.30;99.90
19168;DHT22;9716;53.114;18.040;2022-10-16T09:28:39;20.20;99.90
19168;DHT22;9716;53.114;18.040;2022-10-16T09:31:18;20.20;99.90
19168;DHT22;9716;53.114;18.040;2022-10-16T09:33:51;20.10;99.90
19168;DHT22;9716;53.114;18.040;2022-10-16T09:36:21;20.00;99.90
19168;DHT22;9716;53.114;18.040;2022-10-16T09:39:03;20.00;99.90
19168;DHT22;9716;53.114;18.040;2022-10-16T09:41:34;20.00;99.90
19168;DHT22;9716;53.114;18.040;2022-10-16T09:44:16;19.90;99.90
19168;DHT22;9716;53.114;18.040;2022-10-16T09:46:46;20.00;99.90
19168;DHT22;9716;53.114;18.040;2022-10-16T09:49:21;20.10;99.90
19168;DHT22;9716;53.114;18.040;2022-10-16T09:51:51;20.20;99.90
19168;DHT22;9716;53.114;18.040;2022-10-16T09:54:30;20.30;99.90
19168;DHT22;9716;53.114;18.040;2022-10-16T09:57:05;20.50;99.90
19168;DHT22;9716;53.114;18.040;2022-10-16T09:59:45;20.60;99.90
19168;DHT22;9716;53.114;18.040;2022-10-16T10:02:15;20.70;99.90
19168;DHT22;9716;53.114;18.040;2022-10-16T10:04:49;20.80;99.90
19168;DHT22;9716;53.114;18.040;2022-10-16T10:07:23;20.90;99.90
19168;DHT22;9716;53.114;18.040;2022-10-16T10:09:53;21.00;99.90
19168;DHT22;9716;53.114;18.040;2022-10-16T10:12:24;21.00;99.90
19168;DHT22;9716;53.114;18.040;2022-10-16T10:14:56;21.10;99.90
19168;DHT22;9716;53.114;18.040;2022-10-16T10:17:26;21.20;99.90
19168;DHT22;9716;53.114;18.040;2022-10-16T10:19:56;21.20;99.90
19168;DHT22;9716;53.114;18.040;2022-10-16T10:22:30;21.20;99.90
19168;DHT22;9716;53.114;18.040;2022-10-16T10:25:19;21.10;99.90
19168;DHT22;9716;53.114;18.040;2022-10-16T10:28:06;21.10;99.90
19168;DHT22;9716;53.114;18.040;2022-10-16T10:30:42;21.00;99.90
19168;DHT22;9716;53.114;18.040;2022-10-16T10:33:19;21.00;99.90
19168;DHT22;9716;53.114;18.040;2022-10-16T10:35:56;21.00;99.90
19168;DHT22;9716;53.114;18.040;2022-10-16T10:38:34;21.00;99.90
19168;DHT22;9716;53.114;18.040;2022-10-16T10:41:20;21.00;99.90
19168;DHT22;9716;53.114;18.040;2022-10-16T10:44:01;20.90;99.90
19168;DHT22;9716;53.114;18.040;2022-10-16T10:46:36;21.00;99.90
19168;DHT22;9716;53.114;18.040;2022-10-16T10:49:39;21.30;99.90
19168;DHT22;9716;53.114;18.040;2022-10-16T10:52:35;21.50;99.90
19168;DHT22;9716;53.114;18.040;2022-10-16T10:55:14;21.70;99.90
19168;DHT22;9716;53.114;18.040;2022-10-16T10:58:10;21.90;99.90
19168;DHT22;9716;53.114;18.040;2022-10-16T11:00:51;22.00;99.90
19168;DHT22;9716;53.114;18.040;2022-10-16T11:03:35;22.10;99.90
19168;DHT22;9716;53.114;18.040;2022-10-16T11:06:12;22.20;99.90
19168;DHT22;9716;53.114;18.040;2022-10-16T11:08:47;22.20;99.90
19168;DHT22;9716;53.114;18.040;2022-10-16T11:11:22;22.20;99.90
19168;DHT22;9716;53.114;18.040;2022-10-16T11:13:56;22.20;99.90
19168;DHT22;9716;53.114;18.040;2022-10-16T11:16:28;22.00;99.90
19168;DHT22;9716;53.114;18.040;2022-10-16T11:19:04;21.90;99.90
19168;DHT22;9716;53.114;18.040;2022-10-16T11:21:43;21.70;99.90
19168;DHT22;9716;53.114;18.040;2022-10-16T11:24:20;21.50;99.90
19168;DHT22;9716;53.114;18.040;2022-10-16T11:26:50;21.40;99.90
19168;DHT22;9716;53.114;18.040;2022-10-16T11:29:25;21.30;99.90
19168;DHT22;9716;53.114;18.040;2022-10-16T11:31:58;21.30;99.90
19168;DHT22;9716;53.114;18.040;2022-10-16T11:34:33;21.30;99.90
19168;DHT22;9716;53.114;18.040;2022-10-16T11:37:08;21.40;99.90
19168;DHT22;9716;53.114;18.040;2022-10-16T11:39:38;21.40;99.90
19168;DHT22;9716;53.114;18.040;2022-10-16T11:42:11;21.30;99.90
19168;DHT22;9716;53.114;18.040;2022-10-16T11:44:48;21.30;99.90
19168;DHT22;9716;53.114;18.040;2022-10-16T11:47:25;21.10;99.90
19168;DHT22;9716;53.114;18.040;2022-10-16T11:50:26;21.00;99.90
19168;DHT22;9716;53.114;18.040;2022-10-16T11:53:03;21.00;99.90
19168;DHT22;9716;53.114;18.040;2022-10-16T11:55:35;21.00;99.90
19168;DHT22;9716;53.114;18.040;2022-10-16T11:58:19;21.00;99.90
19168;DHT22;9716;53.114;18.040;2022-10-16T12:00:56;21.00;99.90
19168;DHT22;9716;53.114;18.040;2022-10-16T12:03:29;21.00;99.90
19168;DHT22;9716;53.114;18.040;2022-10-16T12:06:11;21.00;99.90
19168;DHT22;9716;53.114;18.040;2022-10-16T12:08:45;21.00;99.90
19168;DHT22;9716;53.114;18.040;2022-10-16T12:11:31;21.00;99.90
19168;DHT22;9716;53.114;18.040;2022-10-16T12:14:18;21.00;99.90
19168;DHT22;9716;53.114;18.040;2022-10-16T12:16:52;21.00;99.90
19168;DHT22;9716;53.114;18.040;2022-10-16T12:19:22;21.00;99.90
19168;DHT22;9716;53.114;18.040;2022-10-16T12:21:56;20.90;99.90
19168;DHT22;9716;53.114;18.040;2022-10-16T12:24:32;20.90;99.90
19168;DHT22;9716;53.114;18.040;2022-10-16T12:27:02;20.80;99.90
19168;DHT22;9716;53.114;18.040;2022-10-16T12:29:36;20.80;99.90
19168;DHT22;9716;53.114;18.040;2022-10-16T12:32:18;20.70;99.90
19168;DHT22;9716;53.114;18.040;2022-10-16T12:35:19;20.70;99.90
19168;DHT22;9716;53.114;18.040;2022-10-16T12:37:50;20.60;99.90
19168;DHT22;9716;53.114;18.040;2022-10-16T12:40:29;20.50;99.90
19168;DHT22;9716;53.114;18.040;2022-10-16T12:42:58;20.40;99.90
19168;DHT22;9716;53.114;18.040;2022-10-16T12:45:29;20.40;99.90
19168;DHT22;9716;53.114;18.040;2022-10-16T12:48:00;20.40;99.90
19168;DHT22;9716;53.114;18.040;2022-10-16T12:50:32;20.30;99.90
19168;DHT22;9716;53.114;18.040;2022-10-16T12:53:15;20.30;99.90
19168;DHT22;9716;53.114;18.040;2022-10-16T12:55:52;20.30;99.90
19168;DHT22;9716;53.114;18.040;2022-10-16T12:58:41;20.30;99.90
19168;DHT22;9716;53.114;18.040;2022-10-16T13:01:23;20.20;99.90
19168;DHT22;9716;53.114;18.040;2022-10-16T13:07:02;20.20;99.90
19168;DHT22;9716;53.114;18.040;2022-10-16T13:09:43;20.20;99.90
19168;DHT22;9716;53.114;18.040;2022-10-16T13:12:23;20.30;99.90
19168;DHT22;9716;53.114;18.040;2022-10-16T13:15:11;20.30;99.90
19168;DHT22;9716;53.114;18.040;2022-10-16T13:17:51;20.30;99.90
19168;DHT22;9716;53.114;18.040;2022-10-16T13:20:25;20.30;99.90
19168;DHT22;9716;53.114;18.040;2022-10-16T13:23:05;20.30;99.90
19168;DHT22;9716;53.114;18.040;2022-10-16T13:25:46;20.40;99.90
19168;DHT22;9716;53.114;18.040;2022-10-16T13:28:20;20.40;99.90
19168;DHT22;9716;53.114;18.040;2022-10-16T13:30:53;20.50;99.90
19168;DHT22;9716;53.114;18.040;2022-10-16T13:33:28;20.50;99.90
19168;DHT22;9716;53.114;18.040;2022-10-16T13:35:59;20.60;99.90
19168;DHT22;9716;53.114;18.040;2022-10-16T13:38:29;20.60;99.90
19168;DHT22;9716;53.114;18.040;2022-10-16T13:41:02;20.70;99.90
19168;DHT22;9716;53.114;18.040;2022-10-16T13:43:34;20.80;99.90
19168;DHT22;9716;53.114;18.040;2022-10-16T13:46:05;20.80;99.90
19168;DHT22;9716;53.114;18.040;2022-10-16T13:48:34;20.90;99.90
19168;DHT22;9716;53.114;18.040;2022-10-16T13:51:05;20.90;99.90
19168;DHT22;9716;53.114;18.040;2022-10-16T13:53:35;20.90;99.90
19168;DHT22;9716;53.114;18.040;2022-10-16T13:56:07;20.90;99.90
19168;DHT22;9716;53.114;18.040;2022-10-16T13:58:38;20.80;99.90
19168;DHT22;9716;53.114;18.040;2022-10-16T14:01:16;20.80;99.90
19168;DHT22;9716;53.114;18.040;2022-10-16T14:03:45;20.80;99.90
19168;DHT22;9716;53.114;18.040;2022-10-16T14:06:16;20.70;99.90
19168;DHT22;9716;53.114;18.040;2022-10-16T14:08:48;20.70;99.90
19168;DHT22;9716;53.114;18.040;2022-10-16T14:11:23;20.70;99.90
19168;DHT22;9716;53.114;18.040;2022-10-16T14:13:52;20.70;99.90
19168;DHT22;9716;53.114;18.040;2022-10-16T14:16:23;20.60;99.90
19168;DHT22;9716;53.114;18.040;2022-10-16T14:18:57;20.50;99.90
19168;DHT22;9716;53.114;18.040;2022-10-16T14:21:26;20.50;99.90
19168;DHT22;9716;53.114;18.040;2022-10-16T14:23:55;20.40;99.90
19168;DHT22;9716;53.114;18.040;2022-10-16T14:26:27;20.40;99.90
19168;DHT22;9716;53.114;18.040;2022-10-16T14:29:09;20.30;99.90
19168;DHT22;9716;53.114;18.040;2022-10-16T14:31:39;20.30;99.90
19168;DHT22;9716;53.114;18.040;2022-10-16T14:34:26;20.20;99.90
19168;DHT22;9716;53.114;18.040;2022-10-16T14:36:55;20.20;99.90
19168;DHT22;9716;53.114;18.040;2022-10-16T14:39:25;20.10;99.90
19168;DHT22;9716;53.114;18.040;2022-10-16T14:41:57;20.10;99.90
19168;DHT22;9716;53.114;18.040;2022-10-16T14:44:31;20.00;99.90
19168;DHT22;9716;53.114;18.040;2022-10-16T14:47:09;19.90;99.90
19168;DHT22;9716;53.114;18.040;2022-10-16T14:49:41;19.80;99.90
19168;DHT22;9716;53.114;18.040;2022-10-16T14:52:10;19.70;99.90
19168;DHT22;9716;53.114;18.040;2022-10-16T14:54:39;19.60;99.90
19168;DHT22;9716;53.114;18.040;2022-10-16T14:57:17;19.50;99.90
19168;DHT22;9716;53.114;18.040;2022-10-16T14:59:46;19.40;99.90
19168;DHT22;9716;53.114;18.040;2022-10-16T15:02:20;19.30;99.90
19168;DHT22;9716;53.114;18.040;2022-10-16T15:04:50;19.20;99.90
19168;DHT22;9716;53.114;18.040;2022-10-16T15:07:19;19.10;99.90
19168;DHT22;9716;53.114;18.040;2022-10-16T15:09:48;19.00;99.90
19168;DHT22;9716;53.114;18.040;2022-10-16T15:12:18;18.90;99.90
19168;DHT22;9716;53.114;18.040;2022-10-16T15:14:46;18.70;99.90
19168;DHT22;9716;53.114;18.040;2022-10-16T15:17:15;18.60;99.90
19168;DHT22;9716;53.114;18.040;2022-10-16T15:19:48;18.50;99.90
19168;DHT22;9716;53.114;18.040;2022-10-16T15:22:16;18.40;99.90
19168;DHT22;9716;53.114;18.040;2022-10-16T15:24:45;18.20;99.90
19168;DHT22;9716;53.114;18.040;2022-10-16T15:27:13;18.10;99.90
19168;DHT22;9716;53.114;18.040;2022-10-16T15:29:43;18.00;99.90
19168;DHT22;9716;53.114;18.040;2022-10-16T15:32:11;17.90;99.90
19168;DHT22;9716;53.114;18.040;2022-10-16T15:34:40;17.80;99.90
19168;DHT22;9716;53.114;18.040;2022-10-16T15:37:09;17.70;99.90
19168;DHT22;9716;53.114;18.040;2022-10-16T15:39:38;17.70;99.90
19168;DHT22;9716;53.114;18.040;2022-10-16T15:42:07;17.60;99.90
19168;DHT22;9716;53.114;18.040;2022-10-16T15:44:36;17.60;99.90
19168;DHT22;9716;53.114;18.040;2022-10-16T15:47:07;17.50;99.90
19168;DHT22;9716;53.114;18.040;2022-10-16T15:49:35;17.40;99.90
19168;DHT22;9716;53.114;18.040;2022-10-16T15:52:04;17.20;99.90
19168;DHT22;9716;53.114;18.040;2022-10-16T15:54:33;17.10;99.90
19168;DHT22;9716;53.114;18.040;2022-10-16T15:57:01;17.00;99.90
19168;DHT22;9716;53.114;18.040;2022-10-16T15:59:29;16.90;99.90
19168;DHT22;9716;53.114;18.040;2022-10-16T16:01:58;16.80;99.90
19168;DHT22;9716;53.114;18.040;2022-10-16T16:04:29;16.70;99.90